createdAt,value
2023-05-04T12:15:14.816Z,1.70
2023-05-04T12:18:45.416Z,1.70
2023-05-04T12:22:13.137Z,2.00
2023-05-04T12:25:50.949Z,2.00
2023-05-04T12:29:22.275Z,1.80
2023-05-04T12:32:49.282Z,1.40
2023-05-04T12:36:16.592Z,1.20
2023-05-04T12:39:43.514Z,1.90
2023-05-04T12:43:10.563Z,1.80
2023-05-04T12:46:38.311Z,2.00
2023-05-04T12:50:05.529Z,1.50
2023-05-04T12:53:33.095Z,1.70
2023-05-04T12:56:59.607Z,1.60
2023-05-04T13:00:28.238Z,1.60
2023-05-04T13:03:56.313Z,1.70
2023-05-04T13:07:23.501Z,1.60
2023-05-04T13:10:50.549Z,1.80
2023-05-04T13:14:18.137Z,1.40
2023-05-04T13:17:45.372Z,1.40
2023-05-04T13:21:13.087Z,1.50
2023-05-04T13:24:40.469Z,1.70
2023-05-04T13:28:08.101Z,1.40
2023-05-04T13:31:35.515Z,1.50
2023-05-04T13:35:02.408Z,1.50
2023-05-04T13:38:30.378Z,1.70
2023-05-04T13:41:57.473Z,1.50
2023-05-04T13:45:25.549Z,1.30
2023-05-04T13:48:52.565Z,1.90
2023-05-04T13:52:20.120Z,1.30
2023-05-04T13:55:47.340Z,1.70
2023-05-04T13:59:15.273Z,1.90
2023-05-04T14:02:42.872Z,1.80
2023-05-04T14:06:09.921Z,1.50
2023-05-04T14:09:37.697Z,1.50
2023-05-04T14:13:08.623Z,1.60
2023-05-04T14:16:38.140Z,1.40
2023-05-04T14:21:09.681Z,1.60
2023-05-04T14:24:37.439Z,1.70
2023-05-04T14:28:05.907Z,1.80
2023-05-04T14:31:33.740Z,1.40
2023-05-04T14:35:10.317Z,1.40
2023-05-04T14:38:39.535Z,1.40
2023-05-04T14:42:07.077Z,1.80
2023-05-04T14:45:35.391Z,1.50
2023-05-04T14:49:02.896Z,1.60
2023-05-04T14:52:29.960Z,1.60
2023-05-04T14:55:57.021Z,1.70
2023-05-04T14:59:24.727Z,1.40
2023-05-04T15:02:51.934Z,1.30
2023-05-04T15:06:18.900Z,1.70
2023-05-04T15:09:45.982Z,1.50
2023-05-04T15:13:16.140Z,1.40
2023-05-04T15:16:43.342Z,1.60
2023-05-04T15:20:12.064Z,1.90
2023-05-04T15:23:39.602Z,1.60
2023-05-04T15:27:07.239Z,1.20
2023-05-04T15:30:49.274Z,1.70
2023-05-04T15:34:57.214Z,1.60
2023-05-04T15:38:56.488Z,1.80
2023-05-04T15:42:58.519Z,1.60
2023-05-04T15:46:30.789Z,1.50
2023-05-04T15:49:58.107Z,1.40
2023-05-04T15:53:24.899Z,1.60
2023-05-04T15:56:51.764Z,1.70
2023-05-04T16:00:20.068Z,1.90
2023-05-04T16:03:47.730Z,1.80
2023-05-04T16:07:15.778Z,1.40
2023-05-04T16:10:42.705Z,1.80
2023-05-04T16:14:09.777Z,1.60
2023-05-04T16:17:37.444Z,1.40
2023-05-04T16:21:05.616Z,1.10
2023-05-04T16:24:32.653Z,1.50
2023-05-04T16:28:00.961Z,1.10
2023-05-04T16:31:27.894Z,1.50
2023-05-04T16:34:57.719Z,1.90
2023-05-04T16:38:24.662Z,1.30
2023-05-04T16:41:52.417Z,1.30
2023-05-04T16:45:19.954Z,1.60
2023-05-04T16:48:47.033Z,1.60
2023-05-04T16:52:13.943Z,1.30
2023-05-04T16:55:41.081Z,1.30
2023-05-04T16:59:07.823Z,1.20
2023-05-04T17:02:35.859Z,1.80
2023-05-04T17:06:02.675Z,1.60
2023-05-04T17:09:29.663Z,1.80
2023-05-04T17:12:57.387Z,2.40
2023-05-04T17:16:29.160Z,1.60
2023-05-04T17:20:07.335Z,1.80
2023-05-04T17:23:35.998Z,1.70
2023-05-04T17:27:03.448Z,1.60
2023-05-04T17:30:30.924Z,1.80
2023-05-04T17:33:57.523Z,1.60
2023-05-04T17:37:24.426Z,1.40
2023-05-04T17:40:51.271Z,1.50
2023-05-04T17:44:19.364Z,1.50
2023-05-04T17:48:06.267Z,2.00
2023-05-04T17:52:16.480Z,1.70
2023-05-04T17:56:09.335Z,1.90
2023-05-04T17:59:51.605Z,1.90
2023-05-04T18:03:39.448Z,1.60
2023-05-04T18:07:29.409Z,2.20
2023-05-04T18:11:12.875Z,2.30
2023-05-04T18:14:59.156Z,1.80
2023-05-04T18:18:53.090Z,2.20
2023-05-04T18:22:24.322Z,2.40
2023-05-04T18:25:53.782Z,3.10
2023-05-04T18:29:25.545Z,3.70
2023-05-04T18:32:53.231Z,3.10
2023-05-04T18:36:25.890Z,3.10
2023-05-04T18:39:53.765Z,3.50
2023-05-04T18:43:21.682Z,4.50
2023-05-04T18:46:50.323Z,7.90
2023-05-04T18:50:21.955Z,9.90
2023-05-04T18:53:50.750Z,8.90
2023-05-04T18:57:22.593Z,6.80
2023-05-04T19:00:53.567Z,6.10
2023-05-04T19:04:22.300Z,6.00
2023-05-04T19:07:54.152Z,7.40
2023-05-04T19:11:24.222Z,7.30
2023-05-04T19:14:52.356Z,6.40
2023-05-04T19:18:23.610Z,5.90
2023-05-04T19:21:53.627Z,5.50
2023-05-04T19:25:33.833Z,4.50
2023-05-04T19:29:05.891Z,5.20
2023-05-04T19:32:33.160Z,4.90
2023-05-04T19:36:05.340Z,4.60
2023-05-04T19:39:32.133Z,4.10
2023-05-04T19:43:10.217Z,4.30
2023-05-04T19:46:37.880Z,4.00
2023-05-04T19:50:05.728Z,4.50
2023-05-04T19:53:33.173Z,3.70
2023-05-04T19:57:00.822Z,3.70
2023-05-04T20:00:29.191Z,3.70
2023-05-04T20:04:00.357Z,3.60
2023-05-04T20:07:30.826Z,4.00
2023-05-04T20:10:58.376Z,3.50
2023-05-04T20:14:29.016Z,3.30
2023-05-04T20:18:00.979Z,4.20
2023-05-04T20:21:30.130Z,3.20
2023-05-04T20:24:59.710Z,3.20
2023-05-04T20:28:29.330Z,3.70
2023-05-04T20:31:58.915Z,2.90
2023-05-04T20:35:29.760Z,3.50
2023-05-04T20:38:58.591Z,3.10
2023-05-04T20:42:27.900Z,4.10
2023-05-04T20:45:55.088Z,3.10
2023-05-04T20:49:24.551Z,3.60
2023-05-04T20:52:54.929Z,3.30
2023-05-04T20:56:24.208Z,3.30
2023-05-04T20:59:52.789Z,3.30
2023-05-04T21:03:21.941Z,3.00
2023-05-04T21:06:49.941Z,2.90
2023-05-04T21:10:19.488Z,2.90
2023-05-04T21:13:49.675Z,3.00
2023-05-04T21:17:16.237Z,3.00
2023-05-04T21:20:44.826Z,2.80
2023-05-04T21:24:14.935Z,3.30
2023-05-04T21:27:44.214Z,2.90
2023-05-04T21:31:12.182Z,2.90
2023-05-04T21:34:39.504Z,2.50
2023-05-04T21:38:06.656Z,2.50
2023-05-04T21:41:33.482Z,3.10
2023-05-04T21:45:01.250Z,3.50
2023-05-04T21:48:28.608Z,3.40
2023-05-04T21:51:56.083Z,2.90
2023-05-04T21:55:23.102Z,4.00
2023-05-04T21:58:50.366Z,3.40
2023-05-04T22:02:17.143Z,3.70
2023-05-04T22:05:44.433Z,3.70
2023-05-04T22:09:12.941Z,3.10
2023-05-04T22:12:40.191Z,3.80
2023-05-04T22:16:09.485Z,3.70
2023-05-04T22:19:36.110Z,3.20
2023-05-04T22:23:02.838Z,2.60
2023-05-04T22:26:29.960Z,3.30
2023-05-04T22:29:56.988Z,3.30
2023-05-04T22:33:24.435Z,3.30
2023-05-04T22:36:51.674Z,3.10
2023-05-04T22:40:19.475Z,3.50
2023-05-04T22:43:46.869Z,3.40
2023-05-04T22:47:14.507Z,3.10
2023-05-04T22:50:42.118Z,4.10
2023-05-04T22:54:09.568Z,3.60
2023-05-04T22:57:36.944Z,3.90
2023-05-04T23:01:04.593Z,3.60
2023-05-04T23:04:31.408Z,3.80
2023-05-04T23:07:58.321Z,3.40
2023-05-04T23:11:25.994Z,4.00
2023-05-04T23:14:55.394Z,4.10
2023-05-04T23:18:22.335Z,4.10
2023-05-04T23:21:49.451Z,3.90
2023-05-04T23:25:16.181Z,4.10
2023-05-04T23:28:43.039Z,4.00
2023-05-04T23:32:10.132Z,4.90
2023-05-04T23:35:37.053Z,4.30
2023-05-04T23:39:04.058Z,3.70
2023-05-04T23:42:30.805Z,3.70
2023-05-04T23:46:07.268Z,4.30
2023-05-04T23:49:34.645Z,3.90
2023-05-04T23:53:02.663Z,3.70
2023-05-04T23:56:30.150Z,3.70
